Fort Howard, Maryland
Current Conditions -  °F | °C
As of 1:57 AM on Sunday 21 Dec 2014 (Local Time) from KMTN Reporting Station
Scattered Clouds Scattered Clouds  
Wind Chill: 32°   Ceiling: Unl
Heat Index: 32°   Visibility: 10mi
Dew Point: 28°   Wind: 0mph
Humidity: 87%   Direction: NA
Pressure: 30.32"   Gusts: NA
Location:  39.21°N, 76.45°W
Report Text: KMTN 210657Z AUTO 00000KT 10SM SCT080 SCT110 00/M02 A3032 RMK AO2
Loading
Personal Weather Stations






























Interactive Weather Map New forecast layout! Learn more

10-Day Weather Forecast

Advertisements
Track Severe Weather on mobile